createdAt,value
2024-01-30T00:01:14.428Z,26.17
2024-01-30T00:06:20.113Z,29.43
2024-01-30T00:11:26.683Z,25.33
2024-01-30T00:16:30.231Z,25.33
2024-01-30T00:21:33.005Z,27.63
2024-01-30T00:26:37.453Z,29.03
2024-01-30T00:31:42.350Z,26.97
2024-01-30T00:36:45.262Z,27.60
2024-01-30T00:41:49.278Z,24.77
2024-01-30T00:46:51.986Z,25.23
2024-01-30T00:51:54.758Z,28.37
2024-01-30T00:56:58.931Z,27.23
2024-01-30T01:02:01.801Z,26.47
2024-01-30T01:07:04.716Z,26.63
2024-01-30T01:12:09.316Z,27.73
2024-01-30T01:17:12.040Z,23.87
2024-01-30T01:22:14.741Z,23.80
2024-01-30T01:27:18.857Z,25.27
2024-01-30T01:32:22.523Z,24.30
2024-01-30T01:37:27.753Z,24.70
2024-01-30T01:42:31.996Z,21.70
2024-01-30T01:47:34.790Z,25.10
2024-01-30T01:52:39.289Z,23.80
2024-01-30T01:57:44.170Z,26.77
2024-01-30T02:02:48.405Z,26.83
2024-01-30T02:07:52.406Z,25.27
2024-01-30T02:12:56.483Z,21.83
2024-01-30T02:17:59.248Z,25.63
2024-01-30T02:23:04.077Z,26.33
2024-01-30T02:28:07.303Z,26.43
2024-01-30T02:33:10.135Z,26.70
2024-01-30T02:38:14.118Z,24.73
2024-01-30T02:43:17.664Z,24.97
2024-01-30T02:48:20.438Z,25.73
2024-01-30T02:53:24.474Z,24.63
2024-01-30T02:58:27.233Z,30.53
2024-01-30T03:03:30.081Z,29.50
2024-01-30T03:08:35.786Z,23.97
2024-01-30T03:13:38.554Z,28.03
2024-01-30T03:18:41.355Z,27.90
2024-01-30T03:23:45.433Z,24.43
2024-01-30T03:28:48.139Z,29.33
2024-01-30T03:33:50.957Z,27.37
2024-01-30T03:38:55.119Z,32.33
2024-01-30T03:43:57.840Z,27.97
2024-01-30T03:49:00.579Z,30.50
2024-01-30T03:54:04.746Z,24.87
2024-01-30T03:59:08.092Z,24.27
2024-01-30T04:04:13.036Z,25.67
2024-01-30T04:09:32.071Z,23.03
2024-01-30T04:20:45.747Z,24.43
2024-01-30T04:26:07.941Z,28.67
2024-01-30T04:31:51.126Z,25.63
2024-01-30T04:37:23.501Z,23.23
2024-01-30T04:42:59.017Z,28.40
2024-01-30T04:48:33.365Z,24.90
2024-01-30T04:53:56.566Z,27.20
2024-01-30T04:59:20.539Z,24.60
2024-01-30T05:04:35.853Z,25.90
2024-01-30T05:10:07.264Z,25.70
2024-01-30T05:21:29.985Z,27.00
2024-01-30T05:27:03.793Z,26.97
2024-01-30T05:38:14.233Z,25.60
2024-01-30T05:43:33.881Z,23.70
2024-01-30T05:49:00.654Z,29.07
2024-01-30T05:55:18.961Z,27.20
2024-01-30T06:00:45.028Z,30.60
2024-01-30T06:06:34.961Z,26.17
2024-01-30T06:12:23.899Z,29.17
2024-01-30T06:18:02.206Z,26.47
2024-01-30T06:23:40.100Z,25.20
2024-01-30T06:29:01.268Z,28.97
2024-01-30T06:34:14.101Z,26.17
2024-01-30T06:39:18.317Z,29.87
2024-01-30T06:44:21.240Z,28.13
2024-01-30T06:49:24.037Z,26.17
2024-01-30T06:54:28.067Z,28.33
2024-01-30T06:59:30.758Z,26.20
2024-01-30T07:04:33.585Z,23.63
2024-01-30T07:09:37.697Z,26.60
2024-01-30T07:14:40.457Z,23.77
2024-01-30T07:19:43.201Z,23.50
2024-01-30T07:24:49.544Z,25.03
2024-01-30T07:29:52.361Z,21.40
2024-01-30T07:35:03.604Z,24.27
2024-01-30T07:40:13.022Z,23.03
2024-01-30T07:45:15.988Z,22.93
2024-01-30T07:50:20.014Z,20.73
2024-01-30T07:55:25.752Z,23.07
2024-01-30T08:00:30.225Z,21.00
2024-01-30T08:05:33.246Z,20.57
2024-01-30T08:10:37.713Z,19.47
2024-01-30T08:15:40.449Z,21.83
2024-01-30T08:20:43.677Z,19.43
2024-01-30T08:25:47.690Z,20.20
2024-01-30T08:30:50.403Z,21.53
2024-01-30T08:35:53.512Z,19.80
2024-01-30T08:40:58.420Z,18.13
2024-01-30T08:46:01.502Z,18.27
2024-01-30T08:51:04.285Z,19.17
2024-01-30T08:56:09.153Z,17.07
2024-01-30T09:01:12.091Z,17.80
2024-01-30T09:06:15.258Z,20.77
2024-01-30T09:11:19.317Z,16.13
2024-01-30T09:16:22.166Z,23.47
2024-01-30T09:21:25.101Z,18.13
2024-01-30T09:32:27.453Z,19.13
2024-01-30T09:37:59.448Z,23.83
2024-01-30T09:43:50.448Z,20.23
2024-01-30T09:55:05.667Z,21.00
2024-01-30T10:00:51.086Z,21.17
2024-01-30T10:05:58.029Z,20.57
2024-01-30T10:11:13.613Z,22.83
2024-01-30T10:16:23.787Z,19.53
2024-01-30T10:21:26.867Z,19.33
2024-01-30T10:26:37.702Z,19.50
2024-01-30T10:31:51.958Z,18.07
2024-01-30T10:37:08.373Z,19.20
2024-01-30T10:42:15.117Z,17.77
2024-01-30T10:47:24.237Z,18.33
2024-01-30T10:52:45.668Z,18.33
2024-01-30T10:57:51.752Z,16.63
2024-01-30T11:03:24.983Z,22.30
2024-01-30T11:08:30.134Z,19.00
2024-01-30T11:13:36.168Z,19.67
2024-01-30T11:18:43.563Z,19.73
2024-01-30T11:23:48.854Z,20.97
2024-01-30T11:28:57.540Z,21.40
2024-01-30T11:34:03.911Z,19.10
2024-01-30T11:39:15.816Z,20.10
2024-01-30T11:44:22.415Z,37.93
2024-01-30T11:49:44.838Z,23.37
2024-01-30T12:00:32.390Z,25.33
2024-01-30T12:05:45.068Z,22.73
2024-01-30T12:11:05.287Z,23.47
2024-01-30T12:21:49.715Z,24.33
2024-01-30T12:26:59.670Z,24.73
2024-01-30T12:32:07.248Z,27.33
2024-01-30T12:37:15.823Z,22.57
2024-01-30T12:42:21.852Z,26.67
2024-01-30T12:47:47.471Z,21.27
2024-01-30T12:52:57.121Z,22.20
2024-01-30T12:58:00.244Z,29.00
2024-01-30T13:03:21.519Z,26.53
2024-01-30T13:08:46.594Z,22.57
2024-01-30T13:14:08.358Z,23.07
2024-01-30T13:19:24.079Z,19.60
2024-01-30T13:26:06.956Z,23.30
2024-01-30T13:30:56.845Z,22.07
2024-01-30T13:36:26.227Z,26.83
2024-01-30T13:41:53.170Z,21.97
2024-01-30T13:53:22.488Z,25.17
2024-01-30T13:58:56.254Z,23.63
2024-01-30T14:04:00.775Z,26.53
2024-01-30T14:09:34.613Z,28.27
2024-01-30T14:14:49.989Z,24.30
2024-01-30T14:19:53.259Z,23.67
2024-01-30T14:25:10.355Z,29.57
2024-01-30T14:30:14.782Z,30.43
2024-01-30T14:35:21.072Z,22.60
2024-01-30T14:40:30.756Z,25.23
2024-01-30T14:45:40.712Z,28.33
2024-01-30T14:50:50.403Z,26.37
2024-01-30T14:56:00.967Z,30.77
2024-01-30T15:01:07.544Z,27.50
2024-01-30T15:06:16.809Z,30.30
2024-01-30T15:11:24.474Z,33.10
2024-01-30T15:16:33.016Z,28.67
2024-01-30T15:21:38.475Z,32.20
2024-01-30T15:26:41.182Z,30.47
2024-01-30T15:31:45.223Z,29.10
2024-01-30T15:36:48.076Z,35.30
2024-01-30T15:41:50.814Z,31.57
2024-01-30T15:46:54.862Z,29.60
2024-01-30T15:51:57.574Z,29.30
2024-01-30T15:57:00.283Z,36.23
2024-01-30T16:02:06.078Z,27.13
2024-01-30T16:07:17.912Z,32.70
2024-01-30T16:12:20.658Z,34.33
2024-01-30T16:17:30.380Z,29.20
2024-01-30T16:22:42.870Z,29.63
2024-01-30T16:27:46.970Z,31.43
2024-01-30T16:32:52.549Z,32.60
2024-01-30T16:37:55.402Z,30.47
2024-01-30T16:42:58.216Z,33.03
2024-01-30T16:48:02.320Z,31.60
2024-01-30T16:53:05.173Z,35.63
2024-01-30T16:58:09.697Z,32.53
2024-01-30T17:03:13.841Z,33.80
2024-01-30T17:08:16.971Z,32.00
2024-01-30T17:13:19.928Z,35.33
2024-01-30T17:18:24.015Z,35.37
2024-01-30T17:23:27.820Z,37.00
2024-01-30T17:28:31.203Z,40.77
2024-01-30T17:33:35.878Z,36.67
2024-01-30T17:38:39.172Z,33.77
2024-01-30T17:43:42.040Z,36.50
2024-01-30T17:48:47.302Z,39.43
2024-01-30T17:53:51.765Z,36.90
2024-01-30T17:58:56.785Z,35.00
2024-01-30T18:04:00.964Z,36.37
2024-01-30T18:09:04.004Z,35.87
2024-01-30T18:14:06.892Z,40.03
2024-01-30T18:19:11.408Z,33.87
2024-01-30T18:24:14.252Z,35.50
2024-01-30T18:29:16.981Z,39.33
2024-01-30T18:34:21.113Z,40.80
2024-01-30T18:39:24.689Z,36.17
2024-01-30T18:44:27.620Z,35.80
2024-01-30T18:49:31.815Z,38.63
2024-01-30T18:54:34.594Z,40.63
2024-01-30T18:59:37.545Z,38.53
2024-01-30T19:04:42.504Z,39.67
2024-01-30T19:09:45.321Z,40.67
2024-01-30T19:14:48.997Z,41.80
2024-01-30T19:19:53.277Z,47.27
2024-01-30T19:24:56.043Z,40.93
2024-01-30T19:29:58.896Z,42.00
2024-01-30T19:35:03.058Z,42.60
2024-01-30T19:40:07.468Z,41.47
2024-01-30T19:45:12.724Z,37.67
2024-01-30T19:50:17.039Z,41.97
2024-01-30T19:55:19.830Z,42.77
2024-01-30T20:00:25.837Z,40.77
2024-01-30T20:05:30.414Z,39.43
2024-01-30T20:10:33.390Z,39.73
2024-01-30T20:15:36.372Z,37.60
2024-01-30T20:20:41.832Z,43.40
2024-01-30T20:25:44.617Z,41.57
2024-01-30T20:30:48.549Z,41.77
2024-01-30T20:35:52.614Z,40.83
2024-01-30T20:40:55.405Z,47.30
2024-01-30T20:45:59.117Z,45.83
2024-01-30T20:51:03.259Z,41.67
2024-01-30T20:56:06.098Z,46.40
2024-01-30T21:01:08.933Z,51.43
2024-01-30T21:06:14.432Z,46.63
2024-01-30T21:11:19.079Z,52.30
2024-01-30T21:16:21.951Z,52.13
2024-01-30T21:21:26.054Z,48.93
2024-01-30T21:26:29.121Z,50.07
2024-01-30T21:31:31.909Z,49.13
2024-01-30T21:36:35.971Z,47.60
2024-01-30T21:41:38.870Z,49.63
2024-01-30T21:46:41.595Z,46.83
2024-01-30T21:51:46.221Z,52.57
2024-01-30T21:56:49.044Z,48.33
2024-01-30T22:01:51.838Z,47.47
2024-01-30T22:13:42.039Z,50.97
2024-01-30T22:19:09.664Z,50.00
2024-01-30T22:24:54.252Z,54.67
2024-01-30T22:30:33.039Z,54.00
2024-01-30T22:35:59.201Z,56.73
2024-01-30T22:54:09.975Z,55.43
2024-01-30T22:59:39.902Z,55.30
2024-01-30T23:05:19.362Z,56.50
2024-01-30T23:11:01.984Z,59.13
2024-01-30T23:17:02.233Z,55.43
2024-01-30T23:34:00.512Z,54.93
2024-01-30T23:39:53.276Z,57.43
2024-01-30T23:45:31.096Z,54.73
2024-01-30T23:50:35.315Z,59.43
2024-01-30T23:55:38.123Z,57.93
